sensor_id;sensor_type;location;lat;lon;timestamp;P1;durP1;ratioP1;P2;durP2;ratioP2
80179;SDS011;69505;52.134;5.438;2023-04-25T00:01:14;11.00;;;3.08;;
80179;SDS011;69505;52.134;5.438;2023-04-25T00:03:40;5.85;;;2.13;;
80179;SDS011;69505;52.134;5.438;2023-04-25T00:06:07;7.18;;;2.83;;
80179;SDS011;69505;52.134;5.438;2023-04-25T00:08:34;9.77;;;3.00;;
80179;SDS011;69505;52.134;5.438;2023-04-25T00:11:01;9.15;;;2.88;;
80179;SDS011;69505;52.134;5.438;2023-04-25T00:13:27;9.20;;;3.00;;
80179;SDS011;69505;52.134;5.438;2023-04-25T00:15:54;8.23;;;3.17;;
80179;SDS011;69505;52.134;5.438;2023-04-25T00:18:22;8.80;;;3.28;;
80179;SDS011;69505;52.134;5.438;2023-04-25T00:20:49;7.68;;;3.63;;
80179;SDS011;69505;52.134;5.438;2023-04-25T00:23:16;5.55;;;2.47;;
80179;SDS011;69505;52.134;5.438;2023-04-25T00:25:48;10.48;;;3.10;;
80179;SDS011;69505;52.134;5.438;2023-04-25T00:28:16;11.48;;;3.40;;
80179;SDS011;69505;52.134;5.438;2023-04-25T00:30:42;14.40;;;3.53;;
80179;SDS011;69505;52.134;5.438;2023-04-25T00:33:09;8.00;;;3.25;;
80179;SDS011;69505;52.134;5.438;2023-04-25T00:35:36;10.13;;;2.22;;
80179;SDS011;69505;52.134;5.438;2023-04-25T00:38:03;8.73;;;3.70;;
80179;SDS011;69505;52.134;5.438;2023-04-25T00:40:29;11.25;;;2.17;;
80179;SDS011;69505;52.134;5.438;2023-04-25T00:42:56;10.27;;;3.00;;
80179;SDS011;69505;52.134;5.438;2023-04-25T00:45:22;9.88;;;3.03;;
80179;SDS011;69505;52.134;5.438;2023-04-25T00:47:55;8.75;;;3.20;;
80179;SDS011;69505;52.134;5.438;2023-04-25T00:50:22;7.88;;;2.97;;
80179;SDS011;69505;52.134;5.438;2023-04-25T00:52:50;9.07;;;3.20;;
80179;SDS011;69505;52.134;5.438;2023-04-25T00:55:17;11.45;;;3.35;;
80179;SDS011;69505;52.134;5.438;2023-04-25T00:57:43;9.93;;;2.17;;
80179;SDS011;69505;52.134;5.438;2023-04-25T01:00:10;8.10;;;2.58;;
80179;SDS011;69505;52.134;5.438;2023-04-25T01:02:37;13.48;;;3.58;;
80179;SDS011;69505;52.134;5.438;2023-04-25T01:05:04;17.13;;;3.58;;
80179;SDS011;69505;52.134;5.438;2023-04-25T01:07:31;10.70;;;3.15;;
80179;SDS011;69505;52.134;5.438;2023-04-25T01:09:57;7.63;;;2.65;;
80179;SDS011;69505;52.134;5.438;2023-04-25T01:12:24;6.38;;;2.58;;
80179;SDS011;69505;52.134;5.438;2023-04-25T01:14:51;6.88;;;2.47;;
80179;SDS011;69505;52.134;5.438;2023-04-25T01:17:18;8.57;;;3.33;;
80179;SDS011;69505;52.134;5.438;2023-04-25T01:19:45;6.70;;;3.10;;
80179;SDS011;69505;52.134;5.438;2023-04-25T01:22:15;10.07;;;3.75;;
80179;SDS011;69505;52.134;5.438;2023-04-25T01:24:41;8.90;;;3.20;;
80179;SDS011;69505;52.134;5.438;2023-04-25T01:27:08;9.77;;;3.13;;
80179;SDS011;69505;52.134;5.438;2023-04-25T01:29:35;15.68;;;3.50;;
80179;SDS011;69505;52.134;5.438;2023-04-25T01:32:02;7.20;;;3.03;;
80179;SDS011;69505;52.134;5.438;2023-04-25T01:34:29;5.95;;;2.58;;
80179;SDS011;69505;52.134;5.438;2023-04-25T01:36:56;9.27;;;3.17;;
80179;SDS011;69505;52.134;5.438;2023-04-25T01:39:25;9.02;;;3.38;;
80179;SDS011;69505;52.134;5.438;2023-04-25T01:41:52;6.95;;;2.75;;
80179;SDS011;69505;52.134;5.438;2023-04-25T01:44:18;6.50;;;3.28;;
80179;SDS011;69505;52.134;5.438;2023-04-25T01:46:45;5.90;;;2.90;;
80179;SDS011;69505;52.134;5.438;2023-04-25T01:49:11;9.05;;;3.83;;
80179;SDS011;69505;52.134;5.438;2023-04-25T01:51:38;8.25;;;3.53;;
80179;SDS011;69505;52.134;5.438;2023-04-25T01:54:04;10.68;;;3.17;;
80179;SDS011;69505;52.134;5.438;2023-04-25T01:56:32;6.00;;;2.95;;
80179;SDS011;69505;52.134;5.438;2023-04-25T01:58:59;8.23;;;3.65;;
80179;SDS011;69505;52.134;5.438;2023-04-25T02:01:26;8.98;;;2.83;;
80179;SDS011;69505;52.134;5.438;2023-04-25T02:03:52;7.10;;;2.83;;
80179;SDS011;69505;52.134;5.438;2023-04-25T02:06:20;11.85;;;3.33;;
80179;SDS011;69505;52.134;5.438;2023-04-25T02:08:47;11.85;;;3.45;;
80179;SDS011;69505;52.134;5.438;2023-04-25T02:11:13;8.85;;;2.83;;
80179;SDS011;69505;52.134;5.438;2023-04-25T02:13:40;8.30;;;3.05;;
80179;SDS011;69505;52.134;5.438;2023-04-25T02:16:07;9.32;;;3.90;;
80179;SDS011;69505;52.134;5.438;2023-04-25T02:18:33;7.93;;;1.73;;
80179;SDS011;69505;52.134;5.438;2023-04-25T02:21:00;10.70;;;3.03;;
80179;SDS011;69505;52.134;5.438;2023-04-25T02:23:27;8.93;;;2.75;;
80179;SDS011;69505;52.134;5.438;2023-04-25T02:25:55;11.48;;;3.45;;
80179;SDS011;69505;52.134;5.438;2023-04-25T02:28:23;7.63;;;3.45;;
80179;SDS011;69505;52.134;5.438;2023-04-25T02:30:51;10.73;;;3.13;;
80179;SDS011;69505;52.134;5.438;2023-04-25T02:33:21;4.63;;;2.55;;
80179;SDS011;69505;52.134;5.438;2023-04-25T02:38:14;9.25;;;3.25;;
80179;SDS011;69505;52.134;5.438;2023-04-25T02:40:41;7.93;;;2.33;;
80179;SDS011;69505;52.134;5.438;2023-04-25T02:43:07;5.10;;;1.52;;
80179;SDS011;69505;52.134;5.438;2023-04-25T02:45:34;8.05;;;2.60;;
80179;SDS011;69505;52.134;5.438;2023-04-25T02:48:02;8.88;;;1.88;;
80179;SDS011;69505;52.134;5.438;2023-04-25T02:50:29;10.93;;;2.92;;
80179;SDS011;69505;52.134;5.438;2023-04-25T02:52:55;9.73;;;3.28;;
80179;SDS011;69505;52.134;5.438;2023-04-25T02:55:22;9.93;;;3.50;;
80179;SDS011;69505;52.134;5.438;2023-04-25T02:57:52;10.00;;;3.22;;
80179;SDS011;69505;52.134;5.438;2023-04-25T03:00:18;8.75;;;2.78;;
80179;SDS011;69505;52.134;5.438;2023-04-25T03:02:45;7.22;;;1.95;;
80179;SDS011;69505;52.134;5.438;2023-04-25T03:05:12;10.45;;;3.30;;
80179;SDS011;69505;52.134;5.438;2023-04-25T03:07:38;7.35;;;3.35;;
80179;SDS011;69505;52.134;5.438;2023-04-25T03:10:06;9.75;;;2.50;;
80179;SDS011;69505;52.134;5.438;2023-04-25T03:12:33;10.30;;;3.38;;
80179;SDS011;69505;52.134;5.438;2023-04-25T03:15:00;6.68;;;1.70;;
80179;SDS011;69505;52.134;5.438;2023-04-25T03:17:26;10.90;;;3.70;;
80179;SDS011;69505;52.134;5.438;2023-04-25T03:19:53;6.32;;;2.92;;
80179;SDS011;69505;52.134;5.438;2023-04-25T03:22:20;7.93;;;2.90;;
80179;SDS011;69505;52.134;5.438;2023-04-25T03:24:47;7.82;;;2.72;;
80179;SDS011;69505;52.134;5.438;2023-04-25T03:27:13;8.48;;;2.95;;
80179;SDS011;69505;52.134;5.438;2023-04-25T03:29:40;8.32;;;2.97;;
80179;SDS011;69505;52.134;5.438;2023-04-25T03:32:06;6.53;;;2.97;;
80179;SDS011;69505;52.134;5.438;2023-04-25T03:34:33;10.57;;;3.35;;
80179;SDS011;69505;52.134;5.438;2023-04-25T03:37:00;8.45;;;3.00;;
80179;SDS011;69505;52.134;5.438;2023-04-25T03:39:26;6.68;;;3.25;;
80179;SDS011;69505;52.134;5.438;2023-04-25T03:41:53;8.55;;;3.72;;
80179;SDS011;69505;52.134;5.438;2023-04-25T03:44:19;5.45;;;2.95;;
80179;SDS011;69505;52.134;5.438;2023-04-25T03:46:46;8.63;;;3.15;;
80179;SDS011;69505;52.134;5.438;2023-04-25T03:49:13;7.53;;;3.03;;
80179;SDS011;69505;52.134;5.438;2023-04-25T03:54:08;10.70;;;2.92;;
80179;SDS011;69505;52.134;5.438;2023-04-25T03:56:35;9.45;;;3.13;;
80179;SDS011;69505;52.134;5.438;2023-04-25T03:59:01;7.40;;;3.15;;
80179;SDS011;69505;52.134;5.438;2023-04-25T04:01:28;4.80;;;2.63;;
80179;SDS011;69505;52.134;5.438;2023-04-25T04:03:54;11.20;;;1.90;;
80179;SDS011;69505;52.134;5.438;2023-04-25T04:06:22;11.65;;;3.35;;
80179;SDS011;69505;52.134;5.438;2023-04-25T04:08:48;10.82;;;2.67;;
80179;SDS011;69505;52.134;5.438;2023-04-25T04:11:15;11.38;;;3.58;;
80179;SDS011;69505;52.134;5.438;2023-04-25T04:13:41;9.43;;;2.80;;
80179;SDS011;69505;52.134;5.438;2023-04-25T04:16:08;8.80;;;2.65;;
80179;SDS011;69505;52.134;5.438;2023-04-25T04:18:34;7.85;;;3.38;;
80179;SDS011;69505;52.134;5.438;2023-04-25T04:21:01;5.93;;;2.22;;
80179;SDS011;69505;52.134;5.438;2023-04-25T04:23:28;7.95;;;2.92;;
80179;SDS011;69505;52.134;5.438;2023-04-25T04:25:55;11.30;;;2.83;;
80179;SDS011;69505;52.134;5.438;2023-04-25T04:28:22;7.45;;;2.55;;
80179;SDS011;69505;52.134;5.438;2023-04-25T04:30:49;10.35;;;2.80;;
80179;SDS011;69505;52.134;5.438;2023-04-25T04:33:17;10.43;;;2.90;;
80179;SDS011;69505;52.134;5.438;2023-04-25T04:35:46;4.32;;;2.67;;
80179;SDS011;69505;52.134;5.438;2023-04-25T04:38:13;4.25;;;2.58;;
80179;SDS011;69505;52.134;5.438;2023-04-25T04:40:41;6.95;;;2.45;;
80179;SDS011;69505;52.134;5.438;2023-04-25T04:43:10;5.68;;;2.10;;
80179;SDS011;69505;52.134;5.438;2023-04-25T04:45:37;9.32;;;2.53;;
80179;SDS011;69505;52.134;5.438;2023-04-25T04:48:06;3.72;;;1.85;;
80179;SDS011;69505;52.134;5.438;2023-04-25T04:50:36;5.07;;;2.33;;
80179;SDS011;69505;52.134;5.438;2023-04-25T04:55:30;9.40;;;2.70;;
80179;SDS011;69505;52.134;5.438;2023-04-25T04:57:56;5.15;;;2.03;;
80179;SDS011;69505;52.134;5.438;2023-04-25T05:00:23;4.15;;;2.03;;
80179;SDS011;69505;52.134;5.438;2023-04-25T05:02:51;5.63;;;2.58;;
80179;SDS011;69505;52.134;5.438;2023-04-25T05:05:18;4.47;;;2.28;;
80179;SDS011;69505;52.134;5.438;2023-04-25T05:07:44;8.77;;;2.95;;
80179;SDS011;69505;52.134;5.438;2023-04-25T05:10:11;8.25;;;2.50;;
80179;SDS011;69505;52.134;5.438;2023-04-25T05:12:38;6.60;;;2.45;;
80179;SDS011;69505;52.134;5.438;2023-04-25T05:15:04;7.45;;;2.45;;
80179;SDS011;69505;52.134;5.438;2023-04-25T05:17:31;3.13;;;2.33;;
80179;SDS011;69505;52.134;5.438;2023-04-25T05:19:58;6.80;;;2.45;;
80179;SDS011;69505;52.134;5.438;2023-04-25T05:22:25;4.20;;;1.73;;
80179;SDS011;69505;52.134;5.438;2023-04-25T05:24:52;4.18;;;1.80;;
80179;SDS011;69505;52.134;5.438;2023-04-25T05:27:21;7.15;;;2.58;;
80179;SDS011;69505;52.134;5.438;2023-04-25T05:29:47;7.88;;;1.23;;
80179;SDS011;69505;52.134;5.438;2023-04-25T05:32:14;6.93;;;2.13;;
80179;SDS011;69505;52.134;5.438;2023-04-25T05:34:41;6.35;;;2.05;;
80179;SDS011;69505;52.134;5.438;2023-04-25T05:37:08;7.78;;;2.47;;
80179;SDS011;69505;52.134;5.438;2023-04-25T05:39:34;4.75;;;1.38;;
80179;SDS011;69505;52.134;5.438;2023-04-25T05:42:01;6.00;;;2.30;;
80179;SDS011;69505;52.134;5.438;2023-04-25T05:44:28;7.70;;;1.30;;
80179;SDS011;69505;52.134;5.438;2023-04-25T05:46:54;9.13;;;2.90;;
80179;SDS011;69505;52.134;5.438;2023-04-25T05:49:21;5.60;;;2.35;;
80179;SDS011;69505;52.134;5.438;2023-04-25T05:51:48;4.22;;;2.42;;
80179;SDS011;69505;52.134;5.438;2023-04-25T05:54:14;7.70;;;2.30;;
80179;SDS011;69505;52.134;5.438;2023-04-25T05:56:41;6.97;;;3.38;;
80179;SDS011;69505;52.134;5.438;2023-04-25T05:59:07;8.07;;;2.05;;
80179;SDS011;69505;52.134;5.438;2023-04-25T06:01:34;8.80;;;3.00;;
80179;SDS011;69505;52.134;5.438;2023-04-25T06:04:01;6.53;;;2.22;;
80179;SDS011;69505;52.134;5.438;2023-04-25T06:06:28;7.03;;;2.65;;
80179;SDS011;69505;52.134;5.438;2023-04-25T06:08:55;6.45;;;2.08;;
80179;SDS011;69505;52.134;5.438;2023-04-25T06:11:21;9.82;;;2.40;;
80179;SDS011;69505;52.134;5.438;2023-04-25T06:13:48;6.28;;;0.93;;
80179;SDS011;69505;52.134;5.438;2023-04-25T06:16:15;5.88;;;1.98;;
80179;SDS011;69505;52.134;5.438;2023-04-25T06:18:42;6.53;;;2.15;;
80179;SDS011;69505;52.134;5.438;2023-04-25T06:21:08;6.43;;;2.60;;
80179;SDS011;69505;52.134;5.438;2023-04-25T06:23:35;10.10;;;2.50;;
80179;SDS011;69505;52.134;5.438;2023-04-25T06:26:02;7.10;;;2.20;;
80179;SDS011;69505;52.134;5.438;2023-04-25T06:28:28;9.10;;;2.58;;
80179;SDS011;69505;52.134;5.438;2023-04-25T06:30:55;5.10;;;2.70;;
80179;SDS011;69505;52.134;5.438;2023-04-25T06:33:21;6.88;;;2.17;;
80179;SDS011;69505;52.134;5.438;2023-04-25T06:35:48;4.97;;;1.45;;
80179;SDS011;69505;52.134;5.438;2023-04-25T06:38:15;10.20;;;2.47;;
80179;SDS011;69505;52.134;5.438;2023-04-25T06:40:41;4.28;;;1.95;;
80179;SDS011;69505;52.134;5.438;2023-04-25T06:43:08;6.68;;;2.13;;
80179;SDS011;69505;52.134;5.438;2023-04-25T06:45:34;9.93;;;2.17;;
80179;SDS011;69505;52.134;5.438;2023-04-25T06:48:01;8.55;;;2.75;;
80179;SDS011;69505;52.134;5.438;2023-04-25T06:50:27;7.40;;;2.10;;
80179;SDS011;69505;52.134;5.438;2023-04-25T06:52:54;11.25;;;2.28;;
80179;SDS011;69505;52.134;5.438;2023-04-25T06:55:21;5.22;;;2.65;;
80179;SDS011;69505;52.134;5.438;2023-04-25T06:57:47;7.28;;;2.20;;
80179;SDS011;69505;52.134;5.438;2023-04-25T07:00:14;8.18;;;2.00;;
80179;SDS011;69505;52.134;5.438;2023-04-25T07:02:41;6.63;;;1.98;;
80179;SDS011;69505;52.134;5.438;2023-04-25T07:05:09;7.97;;;2.33;;
80179;SDS011;69505;52.134;5.438;2023-04-25T07:07:36;6.10;;;2.00;;
80179;SDS011;69505;52.134;5.438;2023-04-25T07:10:03;5.75;;;2.08;;
80179;SDS011;69505;52.134;5.438;2023-04-25T07:12:29;4.90;;;1.88;;
80179;SDS011;69505;52.134;5.438;2023-04-25T07:14:56;5.05;;;2.03;;
80179;SDS011;69505;52.134;5.438;2023-04-25T07:17:22;5.03;;;2.22;;
80179;SDS011;69505;52.134;5.438;2023-04-25T07:19:52;5.75;;;1.92;;
80179;SDS011;69505;52.134;5.438;2023-04-25T07:22:18;7.05;;;2.00;;
80179;SDS011;69505;52.134;5.438;2023-04-25T07:24:45;4.35;;;1.95;;
80179;SDS011;69505;52.134;5.438;2023-04-25T07:27:14;5.40;;;1.88;;
80179;SDS011;69505;52.134;5.438;2023-04-25T07:29:41;6.68;;;2.05;;
80179;SDS011;69505;52.134;5.438;2023-04-25T07:32:08;10.73;;;2.00;;
80179;SDS011;69505;52.134;5.438;2023-04-25T07:34:36;6.10;;;2.08;;
80179;SDS011;69505;52.134;5.438;2023-04-25T07:37:05;5.40;;;2.35;;
80179;SDS011;69505;52.134;5.438;2023-04-25T07:39:31;10.50;;;1.30;;
80179;SDS011;69505;52.134;5.438;2023-04-25T07:41:58;6.13;;;2.17;;
80179;SDS011;69505;52.134;5.438;2023-04-25T07:44:24;7.22;;;1.73;;
80179;SDS011;69505;52.134;5.438;2023-04-25T07:46:52;8.20;;;1.15;;
80179;SDS011;69505;52.134;5.438;2023-04-25T07:49:18;7.68;;;1.20;;
80179;SDS011;69505;52.134;5.438;2023-04-25T07:51:45;5.20;;;1.80;;
80179;SDS011;69505;52.134;5.438;2023-04-25T07:54:13;11.32;;;1.98;;
80179;SDS011;69505;52.134;5.438;2023-04-25T07:56:40;9.25;;;2.20;;
80179;SDS011;69505;52.134;5.438;2023-04-25T07:59:18;5.82;;;1.50;;
80179;SDS011;69505;52.134;5.438;2023-04-25T08:01:44;9.75;;;2.40;;
80179;SDS011;69505;52.134;5.438;2023-04-25T08:04:11;5.35;;;0.80;;
80179;SDS011;69505;52.134;5.438;2023-04-25T08:06:38;7.03;;;2.05;;
80179;SDS011;69505;52.134;5.438;2023-04-25T08:09:04;6.28;;;1.55;;
80179;SDS011;69505;52.134;5.438;2023-04-25T08:11:31;5.00;;;1.92;;
80179;SDS011;69505;52.134;5.438;2023-04-25T08:13:58;9.40;;;2.10;;
80179;SDS011;69505;52.134;5.438;2023-04-25T08:16:24;6.00;;;2.10;;
80179;SDS011;69505;52.134;5.438;2023-04-25T08:18:51;7.45;;;1.90;;
80179;SDS011;69505;52.134;5.438;2023-04-25T08:21:18;3.97;;;2.13;;
80179;SDS011;69505;52.134;5.438;2023-04-25T08:23:45;4.93;;;1.58;;
80179;SDS011;69505;52.134;5.438;2023-04-25T08:26:12;6.90;;;1.95;;
80179;SDS011;69505;52.134;5.438;2023-04-25T08:28:38;7.80;;;0.90;;
80179;SDS011;69505;52.134;5.438;2023-04-25T08:31:05;5.78;;;1.95;;
80179;SDS011;69505;52.134;5.438;2023-04-25T08:33:32;3.53;;;1.67;;
80179;SDS011;69505;52.134;5.438;2023-04-25T08:35:58;3.85;;;1.90;;
80179;SDS011;69505;52.134;5.438;2023-04-25T08:38:25;3.50;;;1.45;;
80179;SDS011;69505;52.134;5.438;2023-04-25T08:40:52;3.38;;;1.63;;
80179;SDS011;69505;52.134;5.438;2023-04-25T08:43:21;5.65;;;1.60;;
80179;SDS011;69505;52.134;5.438;2023-04-25T08:45:49;5.32;;;1.52;;
80179;SDS011;69505;52.134;5.438;2023-04-25T08:48:20;5.60;;;1.52;;
80179;SDS011;69505;52.134;5.438;2023-04-25T08:50:52;2.17;;;1.27;;
80179;SDS011;69505;52.134;5.438;2023-04-25T08:53:27;3.53;;;1.45;;
80179;SDS011;69505;52.134;5.438;2023-04-25T08:55:57;4.00;;;0.82;;
80179;SDS011;69505;52.134;5.438;2023-04-25T08:58:25;4.47;;;2.13;;
80179;SDS011;69505;52.134;5.438;2023-04-25T09:00:51;4.40;;;1.70;;
80179;SDS011;69505;52.134;5.438;2023-04-25T09:03:19;9.05;;;0.80;;
80179;SDS011;69505;52.134;5.438;2023-04-25T09:05:46;5.28;;;1.60;;
80179;SDS011;69505;52.134;5.438;2023-04-25T09:08:12;5.82;;;0.73;;
80179;SDS011;69505;52.134;5.438;2023-04-25T09:10:39;3.50;;;0.63;;
80179;SDS011;69505;52.134;5.438;2023-04-25T09:15:49;5.43;;;0.70;;
80179;SDS011;69505;52.134;5.438;2023-04-25T09:20:57;5.57;;;2.05;;
80179;SDS011;69505;52.134;5.438;2023-04-25T09:23:48;4.97;;;1.55;;
80179;SDS011;69505;52.134;5.438;2023-04-25T09:26:20;4.40;;;0.80;;
80179;SDS011;69505;52.134;5.438;2023-04-25T09:28:47;3.78;;;0.60;;
80179;SDS011;69505;52.134;5.438;2023-04-25T09:31:23;3.63;;;0.60;;
80179;SDS011;69505;52.134;5.438;2023-04-25T09:33:52;1.80;;;0.50;;
80179;SDS011;69505;52.134;5.438;2023-04-25T09:36:26;4.00;;;1.30;;
80179;SDS011;69505;52.134;5.438;2023-04-25T09:38:53;3.65;;;0.70;;
80179;SDS011;69505;52.134;5.438;2023-04-25T09:41:23;4.70;;;1.60;;
80179;SDS011;69505;52.134;5.438;2023-04-25T09:43:50;6.53;;;1.58;;
80179;SDS011;69505;52.134;5.438;2023-04-25T09:46:17;2.47;;;1.50;;
80179;SDS011;69505;52.134;5.438;2023-04-25T09:48:50;4.43;;;1.33;;
80179;SDS011;69505;52.134;5.438;2023-04-25T09:51:17;3.72;;;1.33;;
80179;SDS011;69505;52.134;5.438;2023-04-25T09:53:44;6.15;;;1.17;;
80179;SDS011;69505;52.134;5.438;2023-04-25T09:56:13;3.47;;;1.90;;
80179;SDS011;69505;52.134;5.438;2023-04-25T09:58:40;3.55;;;1.48;;
80179;SDS011;69505;52.134;5.438;2023-04-25T10:01:08;4.80;;;1.38;;
80179;SDS011;69505;52.134;5.438;2023-04-25T10:06:07;3.90;;;1.67;;
80179;SDS011;69505;52.134;5.438;2023-04-25T10:08:35;4.13;;;0.47;;
80179;SDS011;69505;52.134;5.438;2023-04-25T10:11:07;4.03;;;1.58;;
80179;SDS011;69505;52.134;5.438;2023-04-25T10:13:35;3.95;;;1.65;;
80179;SDS011;69505;52.134;5.438;2023-04-25T10:16:02;2.35;;;1.58;;
80179;SDS011;69505;52.134;5.438;2023-04-25T10:21:00;1.23;;;0.40;;
80179;SDS011;69505;52.134;5.438;2023-04-25T10:23:29;4.88;;;1.50;;
80179;SDS011;69505;52.134;5.438;2023-04-25T10:25:57;3.28;;;1.23;;
80179;SDS011;69505;52.134;5.438;2023-04-25T10:28:24;2.63;;;0.63;;
80179;SDS011;69505;52.134;5.438;2023-04-25T10:31:04;2.70;;;0.47;;
80179;SDS011;69505;52.134;5.438;2023-04-25T10:36:13;3.35;;;0.77;;
80179;SDS011;69505;52.134;5.438;2023-04-25T10:38:43;5.20;;;0.65;;
80179;SDS011;69505;52.134;5.438;2023-04-25T10:41:12;3.45;;;0.70;;
80179;SDS011;69505;52.134;5.438;2023-04-25T10:43:44;2.95;;;0.70;;
80179;SDS011;69505;52.134;5.438;2023-04-25T10:48:46;3.60;;;0.52;;
80179;SDS011;69505;52.134;5.438;2023-04-25T10:54:06;4.55;;;0.70;;
80179;SDS011;69505;52.134;5.438;2023-04-25T10:56:38;2.38;;;0.70;;
80179;SDS011;69505;52.134;5.438;2023-04-25T10:59:17;5.80;;;1.27;;
80179;SDS011;69505;52.134;5.438;2023-04-25T11:01:46;4.45;;;1.60;;
80179;SDS011;69505;52.134;5.438;2023-04-25T11:04:23;4.88;;;0.70;;
80179;SDS011;69505;52.134;5.438;2023-04-25T11:09:44;4.85;;;1.75;;
80179;SDS011;69505;52.134;5.438;2023-04-25T11:12:11;4.15;;;0.70;;
80179;SDS011;69505;52.134;5.438;2023-04-25T11:14:39;6.32;;;1.10;;
80179;SDS011;69505;52.134;5.438;2023-04-25T11:17:05;4.50;;;0.65;;
80179;SDS011;69505;52.134;5.438;2023-04-25T11:19:32;3.97;;;1.35;;
80179;SDS011;69505;52.134;5.438;2023-04-25T11:22:01;4.40;;;0.82;;
80179;SDS011;69505;52.134;5.438;2023-04-25T11:24:29;2.35;;;0.60;;
80179;SDS011;69505;52.134;5.438;2023-04-25T11:27:03;1.80;;;0.70;;
80179;SDS011;69505;52.134;5.438;2023-04-25T11:29:33;2.35;;;1.60;;
80179;SDS011;69505;52.134;5.438;2023-04-25T11:32:00;5.60;;;1.33;;
80179;SDS011;69505;52.134;5.438;2023-04-25T11:34:28;3.85;;;1.33;;
80179;SDS011;69505;52.134;5.438;2023-04-25T11:36:57;3.50;;;1.80;;
80179;SDS011;69505;52.134;5.438;2023-04-25T11:39:24;3.53;;;0.60;;
80179;SDS011;69505;52.134;5.438;2023-04-25T11:41:52;3.10;;;0.60;;
80179;SDS011;69505;52.134;5.438;2023-04-25T11:44:19;2.80;;;1.58;;
80179;SDS011;69505;52.134;5.438;2023-04-25T11:46:47;5.55;;;1.60;;
80179;SDS011;69505;52.134;5.438;2023-04-25T11:49:14;4.03;;;0.68;;
80179;SDS011;69505;52.134;5.438;2023-04-25T11:51:41;2.90;;;1.55;;
80179;SDS011;69505;52.134;5.438;2023-04-25T11:54:09;3.47;;;1.48;;
80179;SDS011;69505;52.134;5.438;2023-04-25T11:56:41;5.30;;;1.63;;
80179;SDS011;69505;52.134;5.438;2023-04-25T11:59:11;3.13;;;0.70;;
80179;SDS011;69505;52.134;5.438;2023-04-25T12:01:40;4.85;;;1.60;;
80179;SDS011;69505;52.134;5.438;2023-04-25T12:04:23;9.90;;;1.92;;
80179;SDS011;69505;52.134;5.438;2023-04-25T12:06:52;2.40;;;1.40;;
80179;SDS011;69505;52.134;5.438;2023-04-25T12:09:21;3.55;;;1.67;;
80179;SDS011;69505;52.134;5.438;2023-04-25T12:11:54;8.60;;;0.90;;
80179;SDS011;69505;52.134;5.438;2023-04-25T12:14:26;3.50;;;0.63;;
80179;SDS011;69505;52.134;5.438;2023-04-25T12:16:58;5.20;;;1.13;;
80179;SDS011;69505;52.134;5.438;2023-04-25T12:19:31;5.53;;;1.65;;
80179;SDS011;69505;52.134;5.438;2023-04-25T12:22:00;2.78;;;1.45;;
80179;SDS011;69505;52.134;5.438;2023-04-25T12:24:27;4.32;;;1.30;;
80179;SDS011;69505;52.134;5.438;2023-04-25T12:27:01;4.60;;;0.60;;
80179;SDS011;69505;52.134;5.438;2023-04-25T12:29:32;7.05;;;0.77;;
80179;SDS011;69505;52.134;5.438;2023-04-25T12:32:15;4.40;;;1.63;;
80179;SDS011;69505;52.134;5.438;2023-04-25T12:34:42;6.00;;;1.42;;
80179;SDS011;69505;52.134;5.438;2023-04-25T12:37:08;3.83;;;1.52;;
80179;SDS011;69505;52.134;5.438;2023-04-25T12:39:35;3.42;;;1.58;;
80179;SDS011;69505;52.134;5.438;2023-04-25T12:42:02;2.47;;;1.42;;
80179;SDS011;69505;52.134;5.438;2023-04-25T12:44:32;3.47;;;2.20;;
80179;SDS011;69505;52.134;5.438;2023-04-25T12:46:58;5.55;;;1.52;;
80179;SDS011;69505;52.134;5.438;2023-04-25T12:49:26;3.33;;;0.50;;
80179;SDS011;69505;52.134;5.438;2023-04-25T12:51:52;4.22;;;1.42;;
80179;SDS011;69505;52.134;5.438;2023-04-25T12:54:19;2.58;;;0.45;;
80179;SDS011;69505;52.134;5.438;2023-04-25T12:56:46;5.30;;;0.70;;
80179;SDS011;69505;52.134;5.438;2023-04-25T12:59:13;2.03;;;0.80;;
80179;SDS011;69505;52.134;5.438;2023-04-25T13:01:40;2.40;;;0.65;;
80179;SDS011;69505;52.134;5.438;2023-04-25T13:04:06;4.57;;;0.73;;
80179;SDS011;69505;52.134;5.438;2023-04-25T13:06:33;5.53;;;1.15;;
80179;SDS011;69505;52.134;5.438;2023-04-25T13:09:00;3.60;;;0.57;;
80179;SDS011;69505;52.134;5.438;2023-04-25T13:11:26;2.92;;;0.57;;
80179;SDS011;69505;52.134;5.438;2023-04-25T13:13:53;6.40;;;1.73;;
80179;SDS011;69505;52.134;5.438;2023-04-25T13:16:20;4.43;;;0.70;;
80179;SDS011;69505;52.134;5.438;2023-04-25T13:18:49;6.28;;;0.70;;
80179;SDS011;69505;52.134;5.438;2023-04-25T13:21:16;4.53;;;1.60;;
80179;SDS011;69505;52.134;5.438;2023-04-25T13:23:42;3.45;;;0.88;;
80179;SDS011;69505;52.134;5.438;2023-04-25T13:26:10;2.05;;;0.50;;
80179;SDS011;69505;52.134;5.438;2023-04-25T13:28:37;4.03;;;0.63;;
80179;SDS011;69505;52.134;5.438;2023-04-25T13:31:03;5.50;;;0.75;;
80179;SDS011;69505;52.134;5.438;2023-04-25T13:33:31;4.22;;;0.70;;
80179;SDS011;69505;52.134;5.438;2023-04-25T13:35:57;2.83;;;1.73;;
80179;SDS011;69505;52.134;5.438;2023-04-25T13:38:24;3.00;;;0.70;;
80179;SDS011;69505;52.134;5.438;2023-04-25T13:40:51;4.38;;;1.40;;
80179;SDS011;69505;52.134;5.438;2023-04-25T13:43:22;3.45;;;1.25;;
80179;SDS011;69505;52.134;5.438;2023-04-25T13:45:49;3.42;;;0.77;;
80179;SDS011;69505;52.134;5.438;2023-04-25T13:48:16;2.53;;;0.52;;
80179;SDS011;69505;52.134;5.438;2023-04-25T13:50:44;3.50;;;0.70;;
80179;SDS011;69505;52.134;5.438;2023-04-25T13:53:11;3.60;;;1.58;;
80179;SDS011;69505;52.134;5.438;2023-04-25T13:55:38;3.95;;;1.45;;
80179;SDS011;69505;52.134;5.438;2023-04-25T13:58:05;6.78;;;0.68;;
80179;SDS011;69505;52.134;5.438;2023-04-25T14:00:36;4.35;;;0.60;;
80179;SDS011;69505;52.134;5.438;2023-04-25T14:03:05;2.10;;;0.50;;
80179;SDS011;69505;52.134;5.438;2023-04-25T14:05:34;4.07;;;0.63;;
80179;SDS011;69505;52.134;5.438;2023-04-25T14:08:06;3.30;;;0.63;;
80179;SDS011;69505;52.134;5.438;2023-04-25T14:10:33;2.00;;;0.52;;
80179;SDS011;69505;52.134;5.438;2023-04-25T14:13:00;2.47;;;0.80;;
80179;SDS011;69505;52.134;5.438;2023-04-25T14:15:30;4.40;;;1.38;;
80179;SDS011;69505;52.134;5.438;2023-04-25T14:17:58;2.95;;;0.52;;
80179;SDS011;69505;52.134;5.438;2023-04-25T14:20:25;4.05;;;0.63;;
80179;SDS011;69505;52.134;5.438;2023-04-25T14:22:52;2.75;;;0.57;;
80179;SDS011;69505;52.134;5.438;2023-04-25T14:25:20;4.38;;;1.35;;
80179;SDS011;69505;52.134;5.438;2023-04-25T14:27:47;2.03;;;0.60;;
80179;SDS011;69505;52.134;5.438;2023-04-25T14:30:19;5.03;;;1.80;;
80179;SDS011;69505;52.134;5.438;2023-04-25T14:32:48;5.35;;;0.75;;
80179;SDS011;69505;52.134;5.438;2023-04-25T14:35:17;5.50;;;0.80;;
80179;SDS011;69505;52.134;5.438;2023-04-25T14:37:44;3.38;;;0.65;;
80179;SDS011;69505;52.134;5.438;2023-04-25T14:40:11;4.45;;;1.30;;
80179;SDS011;69505;52.134;5.438;2023-04-25T14:42:39;8.45;;;1.90;;
80179;SDS011;69505;52.134;5.438;2023-04-25T14:45:07;4.22;;;0.80;;
80179;SDS011;69505;52.134;5.438;2023-04-25T14:47:35;4.38;;;0.82;;
80179;SDS011;69505;52.134;5.438;2023-04-25T14:50:03;3.17;;;0.52;;
80179;SDS011;69505;52.134;5.438;2023-04-25T14:52:30;4.40;;;0.93;;
80179;SDS011;69505;52.134;5.438;2023-04-25T14:54:57;2.90;;;0.77;;
80179;SDS011;69505;52.134;5.438;2023-04-25T14:57:26;4.15;;;0.50;;
80179;SDS011;69505;52.134;5.438;2023-04-25T14:59:52;3.35;;;0.95;;
80179;SDS011;69505;52.134;5.438;2023-04-25T15:02:19;3.80;;;0.70;;
80179;SDS011;69505;52.134;5.438;2023-04-25T15:04:45;2.25;;;0.60;;
80179;SDS011;69505;52.134;5.438;2023-04-25T15:07:12;3.65;;;1.13;;
80179;SDS011;69505;52.134;5.438;2023-04-25T15:09:40;3.50;;;0.60;;
80179;SDS011;69505;52.134;5.438;2023-04-25T15:12:07;2.85;;;1.40;;
80179;SDS011;69505;52.134;5.438;2023-04-25T15:14:33;3.63;;;0.60;;
80179;SDS011;69505;52.134;5.438;2023-04-25T15:17:00;2.45;;;0.52;;